Airfield :
LOGIN :

Register | Disclaimer

   EN    FR    IT 

 










Legend :    VFR   Marginal VFR   IFR   Intensive IFR   Very Intensive IFR
Visi :
Ceiling :
>= 8 km
>= 3000ft
5 to 8 km
1000 to 3000 ft
1500m to 5 km
500 to 1000 ft
800 to 1500m
200 to 500 ft
< 800m
< 200 ft
Symbols :   Thunderstorms  Fog  Heavy snow  Heavy precipitations  Wind > 20 kt
SIGMETs :     Misc.  Thunderstorms  Icing  Turbulence  Mountain Waves  Volcanic Ashes






- Airport Elevation : 288 ft
- IATA code : BZZ


EGVN - RAF Brize Norton

CURRENT METAR :
  • 250920Z 30008KT 9999 FEW021 BKN028 15/10 Q1016 NOSIG RMK BLU BLU

EXPIRED METARs :
  • 250850Z 30008KT 9999 SCT021 BKN031 16/11 Q1016 BECMG SCT025 RMK WHT BECMG BLU
  • 250820Z 30008KT 9999 SCT018 BKN029 BKN200 16/11 Q1016 BECMG BKN025
  • 250750Z 29007KT 9999 FEW016 BKN029 BKN220 15/11 Q1016 TEMPO SCT020 RMK BLU TEMPO WHT
  • 250720Z 30006KT 9999 SCT015 BKN160 BKN220 16/12 Q1016 TEMPO FEW015 RMK WHT TEMPO BLU
  • 250650Z 29007KT 9999 FEW014 BKN020 BKN160 15/13 Q1016 NOSIG RMK WHT WHT

TAF AMD TAF EGVN
Valid from the 25 at 07:00 until the 26 at 06:00 UTC


250757Z 2507/2606 28010KT 9999 SCT025
PROB40
TEMPO 2507/2511 SCT020
PROB30
TEMPO 2515/2519 5000 SHRA BKN024CB
PROB40 2601/2606 BKN007



MET'MAP, your aeronautical weather chart ! - Copyright ORBIFLY December 2007 - Disclaimer

ORBIFLY MET'MAP TEAM :

Programming & Development : Alexandra Zaïnal
Concept & original design : Baudouin d'Aumeries
Assistance for programming : Marc-Olivier Méhu
Technical & hardware support : Manuel Goepfert

Contact : metmap@orbifly.com




SOURCES & CREDITS :

   NOAA